createdAt,value
2019-03-26T00:00:11.368Z,0.00
2019-03-26T00:01:11.288Z,0.00
2019-03-26T00:02:11.210Z,0.00
2019-03-26T00:03:11.166Z,0.00
2019-03-26T00:04:11.040Z,0.00
2019-03-26T00:05:10.958Z,0.00
2019-03-26T00:06:10.875Z,0.00
2019-03-26T00:07:10.832Z,0.00
2019-03-26T00:08:10.771Z,0.00
2019-03-26T00:09:10.733Z,0.00
2019-03-26T00:10:10.638Z,0.00
2019-03-26T00:11:10.512Z,0.00
2019-03-26T00:12:10.385Z,0.00
2019-03-26T00:13:10.376Z,0.00
2019-03-26T00:14:10.220Z,0.00
2019-03-26T00:15:10.114Z,0.00
2019-03-26T00:16:10.066Z,0.00
2019-03-26T00:17:10.000Z,0.00
2019-03-26T00:18:09.984Z,0.00
2019-03-26T00:19:09.800Z,0.00
2019-03-26T00:20:09.757Z,0.00
2019-03-26T00:21:09.695Z,0.00
2019-03-26T00:22:09.612Z,0.00
2019-03-26T00:23:09.521Z,0.00
2019-03-26T00:24:09.485Z,0.00
2019-03-26T00:25:09.387Z,0.00
2019-03-26T00:26:09.366Z,0.00
2019-03-26T00:27:09.198Z,0.00
2019-03-26T00:28:09.148Z,0.00
2019-03-26T00:29:09.063Z,0.00
2019-03-26T00:30:08.916Z,0.00
2019-03-26T00:31:08.872Z,0.00
2019-03-26T00:32:08.746Z,0.00
2019-03-26T00:33:08.677Z,0.00
2019-03-26T00:34:18.659Z,0.00
2019-03-26T00:35:08.467Z,0.00
2019-03-26T00:36:08.368Z,0.00
2019-03-26T00:37:08.326Z,0.00
2019-03-26T00:38:08.264Z,0.00
2019-03-26T00:39:08.122Z,0.00
2019-03-26T00:40:08.027Z,0.00
2019-03-26T00:41:07.946Z,0.00
2019-03-26T00:42:07.929Z,0.00
2019-03-26T00:43:07.783Z,0.00
2019-03-26T00:44:07.706Z,0.00
2019-03-26T00:45:07.631Z,0.00
2019-03-26T00:46:07.556Z,0.00
2019-03-26T00:47:07.463Z,0.00
2019-03-26T00:48:07.360Z,0.00
2019-03-26T00:49:07.341Z,0.00
2019-03-26T00:50:07.196Z,0.00
2019-03-26T00:51:07.114Z,0.00
2019-03-26T00:52:07.071Z,0.00
2019-03-26T00:53:06.995Z,0.00
2019-03-26T00:54:06.864Z,0.00
2019-03-26T00:55:06.775Z,0.00
2019-03-26T00:56:06.694Z,0.00
2019-03-26T00:57:06.610Z,0.00
2019-03-26T00:58:06.527Z,0.00
2019-03-26T00:59:06.487Z,0.00
2019-03-26T01:00:06.400Z,0.00
2019-03-26T01:01:06.274Z,0.00
2019-03-26T01:02:06.222Z,0.00
2019-03-26T01:03:06.153Z,0.00
2019-03-26T01:04:06.023Z,0.00
2019-03-26T01:05:05.947Z,0.00
2019-03-26T01:06:05.905Z,0.00
2019-03-26T01:07:05.771Z,0.00
2019-03-26T01:08:05.738Z,0.00
2019-03-26T01:09:05.662Z,0.00
2019-03-26T01:10:05.528Z,0.00
2019-03-26T01:11:05.497Z,0.00
2019-03-26T01:12:05.359Z,0.00
2019-03-26T01:13:05.326Z,0.00
2019-03-26T01:14:05.210Z,0.00
2019-03-26T01:15:05.148Z,0.00
2019-03-26T01:16:05.016Z,0.00
2019-03-26T01:17:04.992Z,0.00
2019-03-26T01:18:04.856Z,0.00
2019-03-26T01:19:04.803Z,0.00
2019-03-26T01:20:04.701Z,0.00
2019-03-26T01:21:04.659Z,0.00
2019-03-26T01:22:04.578Z,0.00
2019-03-26T01:23:04.480Z,0.00
2019-03-26T01:24:04.389Z,0.00
2019-03-26T01:25:04.333Z,0.00
2019-03-26T01:26:04.187Z,0.00
2019-03-26T01:27:04.118Z,0.00
2019-03-26T01:28:04.040Z,0.00
2019-03-26T01:29:03.938Z,0.00
2019-03-26T01:30:03.997Z,0.00
2019-03-26T01:31:03.897Z,0.00
2019-03-26T01:32:03.746Z,0.00
2019-03-26T01:33:03.688Z,0.00
2019-03-26T01:34:03.574Z,0.00
2019-03-26T01:35:03.499Z,0.00
2019-03-26T01:36:03.443Z,0.00
2019-03-26T01:37:03.380Z,0.00
2019-03-26T01:38:03.183Z,0.00
2019-03-26T01:39:03.304Z,0.00
2019-03-26T01:40:03.078Z,0.00
2019-03-26T01:41:03.018Z,0.00
2019-03-26T01:42:02.838Z,0.00
2019-03-26T01:43:02.834Z,0.00
2019-03-26T01:44:02.715Z,0.00
2019-03-26T01:45:02.599Z,0.00
2019-03-26T01:46:02.577Z,0.00
2019-03-26T01:47:02.433Z,0.00
2019-03-26T01:48:02.382Z,0.00
2019-03-26T01:49:02.259Z,0.00
2019-03-26T01:50:02.216Z,0.00
2019-03-26T01:51:02.158Z,0.00
2019-03-26T01:52:02.069Z,0.00
2019-03-26T01:53:01.958Z,0.00
2019-03-26T01:54:01.843Z,0.00
2019-03-26T01:55:01.805Z,0.00
2019-03-26T01:56:01.726Z,0.00
2019-03-26T01:57:01.602Z,0.00
2019-03-26T01:58:01.521Z,0.00
2019-03-26T01:59:01.411Z,0.00
2019-03-26T02:00:01.346Z,0.00
2019-03-26T02:01:01.253Z,0.00
2019-03-26T02:02:01.200Z,0.00
2019-03-26T02:03:01.087Z,0.00
2019-03-26T02:04:01.004Z,0.00
2019-03-26T02:05:00.974Z,0.00
2019-03-26T02:06:02.581Z,0.00
2019-03-26T02:07:00.782Z,0.00
2019-03-26T02:08:00.664Z,0.00
2019-03-26T02:09:00.594Z,0.00
2019-03-26T02:10:00.580Z,0.00
2019-03-26T02:11:00.414Z,0.00
2019-03-26T02:12:00.316Z,0.00
2019-03-26T02:13:00.247Z,0.00
2019-03-26T02:14:00.220Z,0.00
2019-03-26T02:15:00.147Z,0.00
2019-03-26T02:16:00.019Z,0.00
2019-03-26T02:16:59.915Z,0.00
2019-03-26T02:17:59.844Z,0.00
2019-03-26T02:18:59.782Z,0.00
2019-03-26T02:19:59.652Z,0.00
2019-03-26T02:20:59.592Z,0.00
2019-03-26T02:21:59.506Z,0.00
2019-03-26T02:22:59.407Z,0.00
2019-03-26T02:23:59.359Z,0.00
2019-03-26T02:24:59.288Z,0.00
2019-03-26T02:25:59.178Z,0.00
2019-03-26T02:26:59.128Z,0.00
2019-03-26T02:27:58.983Z,0.00
2019-03-26T02:28:58.965Z,0.00
2019-03-26T02:29:58.819Z,0.00
2019-03-26T02:30:58.725Z,0.00
2019-03-26T02:31:58.693Z,0.00
2019-03-26T02:32:58.614Z,0.00
2019-03-26T02:33:58.556Z,0.00
2019-03-26T02:34:58.389Z,0.00
2019-03-26T02:35:58.350Z,0.00
2019-03-26T02:36:58.245Z,0.00
2019-03-26T02:37:58.159Z,0.00
2019-03-26T02:38:58.049Z,0.00
2019-03-26T02:39:57.964Z,0.00
2019-03-26T02:40:57.902Z,0.00
2019-03-26T02:41:57.845Z,0.00
2019-03-26T02:42:57.719Z,0.00
2019-03-26T02:43:57.671Z,0.00
2019-03-26T02:44:57.564Z,0.00
2019-03-26T02:45:57.464Z,0.00
2019-03-26T02:46:57.431Z,0.00
2019-03-26T02:47:57.332Z,0.00
2019-03-26T02:48:57.252Z,0.00
2019-03-26T02:49:57.130Z,0.00
2019-03-26T02:50:57.058Z,0.00
2019-03-26T02:51:56.955Z,0.00
2019-03-26T02:52:56.915Z,0.00
2019-03-26T02:53:56.796Z,0.00
2019-03-26T02:54:56.706Z,0.00
2019-03-26T02:55:56.686Z,0.00
2019-03-26T02:56:56.594Z,0.00
2019-03-26T02:57:56.493Z,0.00
2019-03-26T02:58:56.374Z,0.00
2019-03-26T02:59:56.416Z,0.00
2019-03-26T03:00:56.247Z,0.00
2019-03-26T03:01:56.174Z,0.00
2019-03-26T03:02:56.087Z,0.00
2019-03-26T03:03:56.193Z,0.00
2019-03-26T03:04:55.916Z,0.00
2019-03-26T03:05:55.887Z,0.00
2019-03-26T03:06:55.788Z,0.00
2019-03-26T03:07:55.658Z,0.00
2019-03-26T03:08:55.631Z,0.00
2019-03-26T03:09:55.555Z,0.00
2019-03-26T03:10:55.447Z,0.00
2019-03-26T03:11:55.404Z,0.00
2019-03-26T03:12:55.195Z,0.00
2019-03-26T03:13:55.218Z,0.00
2019-03-26T03:14:55.044Z,0.00
2019-03-26T03:15:55.142Z,0.00
2019-03-26T03:16:54.908Z,0.00
2019-03-26T03:17:54.874Z,0.00
2019-03-26T03:18:54.844Z,0.00
2019-03-26T03:19:54.701Z,0.00
2019-03-26T03:20:54.515Z,0.00
2019-03-26T03:21:54.447Z,0.00
2019-03-26T03:22:54.356Z,0.00
2019-03-26T03:23:54.366Z,0.00
2019-03-26T03:24:54.188Z,0.00
2019-03-26T03:25:54.194Z,0.00
2019-03-26T03:26:54.094Z,0.00
2019-03-26T03:27:54.010Z,0.00
2019-03-26T03:28:53.928Z,0.00
2019-03-26T03:29:53.840Z,0.00
2019-03-26T03:30:53.706Z,0.00
2019-03-26T03:31:53.704Z,0.00
2019-03-26T03:32:53.550Z,0.00
2019-03-26T03:33:53.473Z,0.00
2019-03-26T03:34:53.346Z,0.00
2019-03-26T03:35:53.363Z,0.00
2019-03-26T03:36:53.224Z,0.00
2019-03-26T03:37:53.087Z,0.00
2019-03-26T03:38:53.055Z,0.00
2019-03-26T03:39:52.973Z,0.00
2019-03-26T03:40:52.822Z,0.00
2019-03-26T03:41:52.754Z,0.00
2019-03-26T03:42:52.658Z,0.00
2019-03-26T03:43:52.566Z,0.00
2019-03-26T03:44:52.529Z,0.00
2019-03-26T03:45:52.412Z,0.00
2019-03-26T03:46:52.318Z,0.00
2019-03-26T03:47:52.239Z,0.00
2019-03-26T03:48:52.152Z,0.00
2019-03-26T03:49:52.069Z,0.00
2019-03-26T03:50:51.984Z,0.00
2019-03-26T03:51:51.899Z,0.00
2019-03-26T03:52:51.854Z,0.00
2019-03-26T03:53:51.772Z,0.00
2019-03-26T03:54:51.693Z,0.00
2019-03-26T03:55:51.610Z,0.00
2019-03-26T03:56:51.491Z,0.00
2019-03-26T03:57:53.025Z,0.00
2019-03-26T03:58:51.356Z,0.00
2019-03-26T03:59:51.276Z,0.00
2019-03-26T04:00:51.150Z,0.00
2019-03-26T04:01:51.047Z,0.00
2019-03-26T04:02:51.022Z,0.00
2019-03-26T04:03:50.878Z,0.00
2019-03-26T04:04:50.799Z,0.00
2019-03-26T04:06:07.800Z,0.00
2019-03-26T04:06:50.675Z,0.00
2019-03-26T04:07:50.597Z,0.00
2019-03-26T04:08:50.471Z,0.00
2019-03-26T04:09:50.484Z,0.00
2019-03-26T04:10:50.373Z,0.00
2019-03-26T04:11:50.225Z,0.00
2019-03-26T04:12:50.215Z,0.00
2019-03-26T04:13:50.100Z,0.00
2019-03-26T04:14:50.032Z,0.00
2019-03-26T04:15:49.933Z,0.00
2019-03-26T04:16:49.800Z,0.00
2019-03-26T04:17:49.701Z,0.00
2019-03-26T04:18:49.659Z,0.00
2019-03-26T04:19:49.538Z,0.00
2019-03-26T04:20:49.450Z,0.00
2019-03-26T04:21:49.369Z,0.00
2019-03-26T04:22:49.280Z,0.00
2019-03-26T04:23:49.194Z,0.00
2019-03-26T04:24:49.110Z,0.00
2019-03-26T04:25:49.027Z,0.00
2019-03-26T04:26:48.944Z,0.00
2019-03-26T04:27:48.863Z,0.00
2019-03-26T04:28:48.856Z,0.00
2019-03-26T04:29:48.712Z,0.00
2019-03-26T04:30:48.662Z,0.00
2019-03-26T04:31:48.534Z,0.00
2019-03-26T04:32:48.495Z,0.00
2019-03-26T04:33:48.390Z,0.00
2019-03-26T04:34:50.041Z,0.00
2019-03-26T04:35:48.230Z,0.00
2019-03-26T04:36:48.156Z,0.00
2019-03-26T04:37:48.079Z,0.00
2019-03-26T04:38:48.005Z,0.00
2019-03-26T04:39:47.913Z,0.00
2019-03-26T04:40:47.829Z,0.00
2019-03-26T04:41:47.725Z,0.00
2019-03-26T04:42:47.665Z,0.00
2019-03-26T04:43:47.564Z,0.00
2019-03-26T04:44:47.501Z,0.00
2019-03-26T04:45:47.344Z,0.00
2019-03-26T04:46:47.255Z,0.00
2019-03-26T04:47:47.165Z,4.00
2019-03-26T04:48:47.093Z,0.00
2019-03-26T04:49:47.043Z,0.00
2019-03-26T04:50:46.920Z,0.00
2019-03-26T04:51:46.833Z,4.00
2019-03-26T04:52:46.751Z,0.00
2019-03-26T04:53:46.693Z,0.00
2019-03-26T04:54:46.585Z,4.00
2019-03-26T04:55:46.536Z,0.00
2019-03-26T04:56:46.414Z,4.00
2019-03-26T04:57:46.332Z,0.00
2019-03-26T04:58:46.249Z,4.00
2019-03-26T04:59:46.170Z,4.00
2019-03-26T05:00:46.079Z,8.00
2019-03-26T05:01:45.988Z,4.00
2019-03-26T05:02:45.903Z,8.00
2019-03-26T05:03:45.858Z,4.00
2019-03-26T05:04:45.749Z,8.00
2019-03-26T05:05:45.656Z,8.00
2019-03-26T05:06:45.564Z,12.00
2019-03-26T05:07:45.492Z,12.00
2019-03-26T05:08:45.448Z,8.00
2019-03-26T05:09:45.380Z,12.00
2019-03-26T05:10:45.270Z,12.00
2019-03-26T05:11:45.212Z,16.00
2019-03-26T05:12:45.115Z,16.00
2019-03-26T05:13:45.026Z,16.00
2019-03-26T05:14:44.949Z,16.00
2019-03-26T05:15:44.814Z,20.00
2019-03-26T05:16:44.797Z,24.00
2019-03-26T05:17:44.652Z,24.00
2019-03-26T05:18:44.595Z,24.00
2019-03-26T05:19:44.544Z,28.00
2019-03-26T05:20:44.397Z,28.00
2019-03-26T05:21:44.310Z,28.00
2019-03-26T05:22:44.227Z,28.00
2019-03-26T05:23:44.141Z,32.00
2019-03-26T05:24:44.061Z,32.00
2019-03-26T05:25:43.975Z,32.00
2019-03-26T05:26:43.970Z,36.00
2019-03-26T05:27:45.678Z,36.00
2019-03-26T05:28:43.860Z,36.00
2019-03-26T05:29:43.707Z,36.00
2019-03-26T05:30:43.625Z,36.00
2019-03-26T05:31:43.542Z,36.00
2019-03-26T05:32:43.426Z,36.00
2019-03-26T05:33:43.300Z,36.00
2019-03-26T05:34:43.266Z,36.00
2019-03-26T05:35:43.236Z,36.00
2019-03-26T05:36:51.203Z,40.00
2019-03-26T05:37:42.962Z,40.00
2019-03-26T05:38:42.938Z,40.00
2019-03-26T05:39:42.835Z,40.00
2019-03-26T05:40:42.766Z,44.00
2019-03-26T05:41:42.624Z,48.00
2019-03-26T05:42:42.537Z,48.00
2019-03-26T05:43:42.496Z,48.00
2019-03-26T05:44:42.377Z,52.00
2019-03-26T05:45:42.287Z,56.00
2019-03-26T05:46:42.210Z,56.00
2019-03-26T05:47:42.133Z,60.00
2019-03-26T05:48:42.060Z,60.00
2019-03-26T05:49:42.044Z,68.00
2019-03-26T05:50:41.932Z,64.00
2019-03-26T05:51:41.834Z,68.00
2019-03-26T05:52:41.715Z,68.00
2019-03-26T05:53:41.630Z,76.00
2019-03-26T05:54:41.542Z,80.00
2019-03-26T05:55:41.453Z,80.00
2019-03-26T05:56:41.411Z,84.00
2019-03-26T05:57:41.276Z,92.00
2019-03-26T05:58:41.248Z,96.00
2019-03-26T05:59:41.109Z,96.00
2019-03-26T06:00:41.186Z,96.00
2019-03-26T06:01:40.995Z,100.00
2019-03-26T06:02:40.903Z,100.00
2019-03-26T06:03:40.781Z,100.00
2019-03-26T06:04:40.737Z,104.00
2019-03-26T06:05:40.632Z,104.00
2019-03-26T06:06:40.525Z,104.00
2019-03-26T06:07:40.435Z,108.00
2019-03-26T06:08:40.363Z,116.00
2019-03-26T06:09:40.276Z,116.00
2019-03-26T06:10:40.191Z,124.00
2019-03-26T06:11:40.111Z,132.00
2019-03-26T06:12:40.120Z,136.00
2019-03-26T06:13:39.940Z,144.00
2019-03-26T06:14:39.851Z,148.00
2019-03-26T06:15:39.771Z,156.00
2019-03-26T06:16:39.704Z,160.00
2019-03-26T06:17:39.654Z,164.00
2019-03-26T06:18:39.522Z,164.00
2019-03-26T06:19:39.439Z,172.00
2019-03-26T06:20:39.353Z,172.00
2019-03-26T06:21:39.268Z,172.00
2019-03-26T06:22:39.250Z,176.00
2019-03-26T06:23:39.160Z,176.00
2019-03-26T06:24:39.018Z,172.00
2019-03-26T06:25:38.983Z,188.00
2019-03-26T06:26:38.854Z,192.00
2019-03-26T06:27:38.767Z,200.00
2019-03-26T06:28:38.685Z,204.00
2019-03-26T06:29:38.596Z,216.00
2019-03-26T06:30:38.509Z,220.00
2019-03-26T06:31:38.427Z,228.00
2019-03-26T06:32:38.344Z,228.00
2019-03-26T06:33:38.305Z,232.00
2019-03-26T06:34:38.177Z,232.00
2019-03-26T06:35:38.110Z,232.00
2019-03-26T06:36:38.071Z,232.00
2019-03-26T06:37:37.928Z,228.00
2019-03-26T06:38:37.853Z,228.00
2019-03-26T06:39:37.751Z,228.00
2019-03-26T06:40:37.671Z,228.00
2019-03-26T06:41:37.597Z,228.00
2019-03-26T06:42:37.500Z,236.00
2019-03-26T06:43:37.433Z,240.00
2019-03-26T06:44:37.352Z,244.00
2019-03-26T06:45:37.254Z,256.00
2019-03-26T06:46:37.200Z,272.00
2019-03-26T06:47:37.086Z,288.00
2019-03-26T06:48:37.002Z,300.00
2019-03-26T06:49:36.934Z,304.00
2019-03-26T06:50:36.838Z,308.00
2019-03-26T06:51:36.819Z,304.00
2019-03-26T06:52:36.702Z,300.00
2019-03-26T06:53:36.632Z,300.00
2019-03-26T06:54:36.500Z,308.00
2019-03-26T06:55:36.458Z,304.00
2019-03-26T06:56:36.338Z,308.00
2019-03-26T06:57:36.274Z,308.00
2019-03-26T06:58:36.222Z,316.00
2019-03-26T06:59:36.087Z,324.00
2019-03-26T07:00:36.039Z,332.00
2019-03-26T07:01:35.971Z,336.00
2019-03-26T07:02:35.843Z,344.00
2019-03-26T07:03:35.771Z,344.00
2019-03-26T07:04:35.663Z,344.00
2019-03-26T07:05:35.623Z,340.00
2019-03-26T07:06:35.556Z,344.00
2019-03-26T07:07:35.418Z,348.00
2019-03-26T07:08:35.346Z,348.00
2019-03-26T07:09:35.300Z,352.00
2019-03-26T07:10:35.213Z,356.00
2019-03-26T07:11:35.094Z,356.00
2019-03-26T07:12:34.994Z,356.00
2019-03-26T07:13:34.918Z,356.00
2019-03-26T07:14:34.931Z,356.00
2019-03-26T07:15:34.767Z,360.00
2019-03-26T07:16:34.660Z,368.00
2019-03-26T07:17:34.595Z,380.00
2019-03-26T07:18:34.606Z,384.00
2019-03-26T07:19:34.465Z,392.00
2019-03-26T07:20:34.334Z,400.00
2019-03-26T07:21:34.348Z,408.00
2019-03-26T07:22:34.227Z,420.00
2019-03-26T07:23:34.118Z,432.00
2019-03-26T07:24:34.068Z,452.00
2019-03-26T07:25:33.996Z,468.00
2019-03-26T07:26:33.900Z,476.00
2019-03-26T07:27:33.806Z,488.00
2019-03-26T07:28:33.701Z,492.00
2019-03-26T07:29:33.680Z,496.00
2019-03-26T07:30:33.518Z,504.00
2019-03-26T07:31:33.425Z,516.00
2019-03-26T07:32:33.472Z,536.00
2019-03-26T07:33:33.318Z,560.00
2019-03-26T07:34:33.240Z,580.00
2019-03-26T07:35:33.095Z,592.00
2019-03-26T07:36:33.067Z,596.00
2019-03-26T07:37:44.463Z,588.00
2019-03-26T07:38:32.850Z,580.00
2019-03-26T07:39:32.784Z,568.00
2019-03-26T07:40:32.734Z,568.00
2019-03-26T07:41:32.655Z,580.00
2019-03-26T07:42:32.676Z,588.00
2019-03-26T07:43:32.563Z,600.00
2019-03-26T07:44:32.386Z,604.00
2019-03-26T07:45:32.278Z,616.00
2019-03-26T07:46:32.194Z,624.00
2019-03-26T07:47:32.169Z,632.00
2019-03-26T07:48:32.102Z,644.00
2019-03-26T07:49:32.059Z,648.00
2019-03-26T07:50:31.884Z,660.00
2019-03-26T07:51:31.946Z,664.00
2019-03-26T07:52:31.712Z,676.00
2019-03-26T07:53:31.707Z,692.00
2019-03-26T07:54:32.701Z,704.00
2019-03-26T07:55:31.489Z,712.00
2019-03-26T07:56:31.444Z,716.00
2019-03-26T07:57:31.408Z,724.00
2019-03-26T07:58:33.172Z,724.00
2019-03-26T07:59:31.167Z,736.00
2019-03-26T08:00:31.087Z,748.00
2019-03-26T08:01:30.995Z,768.00
2019-03-26T08:02:30.968Z,800.00
2019-03-26T08:03:30.847Z,832.00
2019-03-26T08:04:30.731Z,860.00
2019-03-26T08:05:30.634Z,880.00
2019-03-26T08:06:30.572Z,904.00
2019-03-26T08:07:30.515Z,932.00
2019-03-26T08:08:30.449Z,968.00
2019-03-26T08:09:31.839Z,1028.00
2019-03-26T08:10:30.258Z,1068.00
2019-03-26T08:11:30.158Z,1088.00
2019-03-26T08:12:32.730Z,1076.00
2019-03-26T08:13:29.998Z,1000.00
2019-03-26T08:14:29.950Z,972.00
2019-03-26T08:15:29.865Z,964.00
2019-03-26T08:16:29.773Z,972.00
2019-03-26T08:17:29.659Z,968.00
2019-03-26T08:18:29.640Z,964.00
2019-03-26T08:19:29.488Z,984.00
2019-03-26T08:20:29.482Z,1028.00
2019-03-26T08:21:29.331Z,1096.00
2019-03-26T08:22:29.232Z,1136.00
2019-03-26T08:23:29.152Z,1216.00
2019-03-26T08:24:29.169Z,1220.00
2019-03-26T08:25:29.047Z,1256.00
2019-03-26T08:26:28.965Z,1224.00
2019-03-26T08:27:28.886Z,1304.00
2019-03-26T08:28:28.760Z,1184.00
2019-03-26T08:29:28.733Z,1184.00
2019-03-26T08:30:28.658Z,1148.00
2019-03-26T08:31:28.555Z,1168.00
2019-03-26T08:32:28.469Z,1212.00
2019-03-26T08:33:28.406Z,1248.00
2019-03-26T08:34:28.287Z,1284.00
2019-03-26T08:35:28.307Z,1296.00
2019-03-26T08:36:28.118Z,1172.00
2019-03-26T08:37:27.982Z,1180.00
2019-03-26T08:38:27.929Z,1156.00
2019-03-26T08:39:27.860Z,1192.00
2019-03-26T08:40:27.877Z,1148.00
2019-03-26T08:41:27.818Z,1156.00
2019-03-26T08:42:27.624Z,1216.00
2019-03-26T08:43:27.651Z,1508.00
2019-03-26T08:44:27.449Z,1156.00
2019-03-26T08:45:27.382Z,1136.00
2019-03-26T08:46:27.309Z,1216.00
2019-03-26T08:47:27.208Z,2784.00
2019-03-26T08:48:27.180Z,2088.00
2019-03-26T08:49:30.686Z,2432.00
2019-03-26T08:50:26.974Z,4084.00
2019-03-26T08:51:26.873Z,1592.00
2019-03-26T08:52:26.762Z,3132.00
2019-03-26T08:53:26.744Z,3004.00
2019-03-26T08:54:26.671Z,3800.00
2019-03-26T08:55:26.594Z,2112.00
2019-03-26T08:56:26.527Z,1608.00
2019-03-26T08:57:26.442Z,2396.00
2019-03-26T08:58:26.321Z,4096.00
2019-03-26T08:59:26.257Z,4032.00
2019-03-26T09:00:26.093Z,4048.00
2019-03-26T09:01:26.042Z,3936.00
2019-03-26T09:02:25.995Z,3036.00
2019-03-26T09:03:25.934Z,4128.00
2019-03-26T09:04:27.154Z,3868.00
2019-03-26T09:05:25.694Z,3396.00
2019-03-26T09:06:25.725Z,3952.00
2019-03-26T09:07:25.533Z,1048.00
2019-03-26T09:08:25.894Z,980.00
2019-03-26T09:09:25.378Z,1808.00
2019-03-26T09:10:25.280Z,1152.00
2019-03-26T09:11:25.275Z,672.00
2019-03-26T09:12:25.252Z,608.00
2019-03-26T09:13:25.067Z,596.00
2019-03-26T09:14:25.024Z,592.00
2019-03-26T09:15:24.979Z,640.00
2019-03-26T09:16:24.839Z,692.00
2019-03-26T09:17:24.759Z,996.00
2019-03-26T09:18:24.655Z,768.00
2019-03-26T09:19:24.617Z,824.00
2019-03-26T09:20:24.509Z,1000.00
2019-03-26T09:21:24.411Z,3832.00
2019-03-26T09:22:24.383Z,3780.00
2019-03-26T09:23:24.299Z,2492.00
2019-03-26T09:24:24.236Z,996.00
2019-03-26T09:25:24.140Z,804.00
2019-03-26T09:26:24.056Z,704.00
2019-03-26T09:27:23.940Z,628.00
2019-03-26T09:28:23.858Z,568.00
2019-03-26T09:29:23.810Z,516.00
2019-03-26T09:30:23.687Z,484.00
2019-03-26T09:31:23.671Z,448.00
2019-03-26T09:32:23.643Z,412.00
2019-03-26T09:33:23.447Z,380.00
2019-03-26T09:34:23.358Z,352.00
2019-03-26T09:35:23.280Z,324.00
2019-03-26T09:36:23.254Z,304.00
2019-03-26T09:37:23.124Z,292.00
2019-03-26T09:38:23.054Z,284.00
2019-03-26T09:39:22.953Z,272.00
2019-03-26T09:40:22.902Z,272.00
2019-03-26T09:41:22.842Z,268.00
2019-03-26T09:42:22.761Z,272.00
2019-03-26T09:43:22.696Z,280.00
2019-03-26T09:44:22.649Z,280.00
2019-03-26T09:45:22.503Z,292.00
2019-03-26T09:46:22.471Z,300.00
2019-03-26T09:47:22.337Z,312.00
2019-03-26T09:48:22.232Z,328.00
2019-03-26T09:49:22.189Z,344.00
2019-03-26T09:50:22.080Z,360.00
2019-03-26T09:51:21.992Z,376.00
2019-03-26T09:52:21.912Z,400.00
2019-03-26T09:53:21.828Z,416.00
2019-03-26T09:54:21.822Z,432.00
2019-03-26T09:55:21.742Z,448.00
2019-03-26T09:56:29.269Z,468.00
2019-03-26T09:57:21.563Z,492.00
2019-03-26T09:58:21.478Z,516.00
2019-03-26T09:59:21.397Z,540.00
2019-03-26T10:00:21.331Z,560.00
2019-03-26T10:01:21.202Z,580.00
2019-03-26T10:02:21.124Z,596.00
2019-03-26T10:03:21.076Z,620.00
2019-03-26T10:04:21.006Z,644.00
2019-03-26T10:05:21.013Z,660.00
2019-03-26T10:06:23.564Z,648.00
2019-03-26T10:07:21.916Z,644.00
2019-03-26T10:08:20.698Z,640.00
2019-03-26T10:09:20.567Z,640.00
2019-03-26T10:10:20.500Z,656.00
2019-03-26T10:11:20.403Z,676.00
2019-03-26T10:12:20.395Z,700.00
2019-03-26T10:13:20.212Z,724.00
2019-03-26T10:14:20.234Z,760.00
2019-03-26T10:15:20.088Z,792.00
2019-03-26T10:16:19.984Z,832.00
2019-03-26T10:17:19.910Z,876.00
2019-03-26T10:18:19.844Z,920.00
2019-03-26T10:19:19.782Z,948.00
2019-03-26T10:20:19.735Z,968.00
2019-03-26T10:21:19.583Z,1004.00
2019-03-26T10:22:20.139Z,1100.00
2019-03-26T10:23:19.450Z,1044.00
2019-03-26T10:24:19.385Z,1080.00
2019-03-26T10:25:19.294Z,1188.00
2019-03-26T10:26:19.190Z,1320.00
2019-03-26T10:27:19.156Z,1444.00
2019-03-26T10:28:19.047Z,1888.00
2019-03-26T10:29:29.665Z,1712.00
2019-03-26T10:30:18.846Z,3200.00
2019-03-26T10:31:18.825Z,4172.00
2019-03-26T10:32:18.697Z,2372.00
2019-03-26T10:33:18.713Z,4364.00
2019-03-26T10:34:18.647Z,4364.00
2019-03-26T10:35:18.528Z,3496.00
2019-03-26T10:36:18.390Z,2132.00
2019-03-26T10:37:18.459Z,3412.00
2019-03-26T10:38:18.278Z,2088.00
2019-03-26T10:39:20.094Z,1516.00
2019-03-26T10:40:18.128Z,1424.00
2019-03-26T10:41:18.824Z,1380.00
2019-03-26T10:42:17.900Z,1384.00
2019-03-26T10:43:17.842Z,1308.00
2019-03-26T10:44:17.754Z,1292.00
2019-03-26T10:45:17.752Z,1208.00
2019-03-26T10:46:17.638Z,1220.00
2019-03-26T10:47:17.492Z,1356.00
2019-03-26T10:48:17.422Z,1392.00
2019-03-26T10:49:17.330Z,1368.00
2019-03-26T10:50:17.305Z,2312.00
2019-03-26T10:51:17.241Z,1688.00
2019-03-26T10:52:17.136Z,1836.00
2019-03-26T10:53:17.049Z,1068.00
2019-03-26T10:54:16.951Z,944.00
2019-03-26T10:55:16.853Z,840.00
2019-03-26T10:56:16.818Z,768.00
2019-03-26T10:57:16.768Z,720.00
2019-03-26T10:58:16.646Z,708.00
2019-03-26T10:59:16.593Z,708.00
2019-03-26T11:00:16.461Z,724.00
2019-03-26T11:01:16.405Z,748.00
2019-03-26T11:02:16.296Z,784.00
2019-03-26T11:03:16.228Z,824.00
2019-03-26T11:04:16.185Z,872.00
2019-03-26T11:05:16.122Z,908.00
2019-03-26T11:06:16.058Z,936.00
2019-03-26T11:07:15.952Z,952.00
2019-03-26T11:08:15.817Z,936.00
2019-03-26T11:09:24.084Z,928.00
2019-03-26T11:10:15.728Z,912.00
2019-03-26T11:11:15.656Z,904.00
2019-03-26T11:12:15.500Z,888.00
2019-03-26T11:13:15.527Z,856.00
2019-03-26T11:14:15.353Z,820.00
2019-03-26T11:15:15.309Z,792.00
2019-03-26T11:16:15.235Z,788.00
2019-03-26T11:17:15.180Z,816.00
2019-03-26T11:18:15.062Z,860.00
2019-03-26T11:19:14.950Z,960.00
2019-03-26T11:20:14.911Z,1044.00
2019-03-26T11:21:14.814Z,924.00
2019-03-26T11:22:14.817Z,844.00
2019-03-26T11:23:14.693Z,840.00
2019-03-26T11:24:14.578Z,928.00
2019-03-26T11:25:14.472Z,1116.00
2019-03-26T11:26:14.379Z,3296.00
2019-03-26T11:27:14.338Z,3312.00
2019-03-26T11:28:14.247Z,3324.00
2019-03-26T11:29:14.182Z,3372.00
2019-03-26T11:30:14.156Z,3376.00
2019-03-26T11:31:13.988Z,2012.00
2019-03-26T11:32:13.928Z,3096.00
2019-03-26T11:33:13.866Z,1256.00
2019-03-26T11:34:13.734Z,1072.00
2019-03-26T11:35:13.665Z,1024.00
2019-03-26T11:36:13.586Z,1076.00
2019-03-26T11:37:13.505Z,1432.00
2019-03-26T11:38:13.476Z,1440.00
2019-03-26T11:39:13.338Z,1540.00
2019-03-26T11:40:13.330Z,760.00
2019-03-26T11:41:13.221Z,672.00
2019-03-26T11:42:13.101Z,632.00
2019-03-26T11:43:13.034Z,632.00
2019-03-26T11:44:12.978Z,644.00
2019-03-26T11:45:12.922Z,672.00
2019-03-26T11:46:12.821Z,716.00
2019-03-26T11:47:12.747Z,764.00
2019-03-26T11:48:12.639Z,812.00
2019-03-26T11:49:12.634Z,872.00
2019-03-26T11:50:12.502Z,1028.00
2019-03-26T11:51:12.427Z,3076.00
2019-03-26T11:52:12.320Z,892.00
2019-03-26T11:53:12.225Z,812.00
2019-03-26T11:54:12.150Z,744.00
2019-03-26T11:55:12.140Z,700.00
2019-03-26T11:56:11.987Z,684.00
2019-03-26T11:57:11.907Z,696.00
2019-03-26T11:58:11.833Z,716.00
2019-03-26T11:59:11.760Z,748.00
2019-03-26T12:00:11.676Z,784.00
2019-03-26T12:01:11.600Z,828.00
2019-03-26T12:02:11.602Z,880.00
2019-03-26T12:03:11.446Z,932.00
2019-03-26T12:04:11.415Z,1000.00
2019-03-26T12:05:11.275Z,1156.00
2019-03-26T12:06:11.233Z,1436.00
2019-03-26T12:07:11.171Z,1680.00
2019-03-26T12:08:11.038Z,3124.00
2019-03-26T12:09:10.974Z,2344.00
2019-03-26T12:10:10.905Z,2604.00
2019-03-26T12:11:10.845Z,1400.00
2019-03-26T12:12:10.815Z,1364.00
2019-03-26T12:13:10.679Z,1696.00
2019-03-26T12:14:10.609Z,1524.00
2019-03-26T12:15:10.553Z,1708.00
2019-03-26T12:16:10.448Z,1484.00
2019-03-26T12:17:10.338Z,1472.00
2019-03-26T12:18:10.284Z,1700.00
2019-03-26T12:19:10.208Z,1532.00
2019-03-26T12:20:10.085Z,1488.00
2019-03-26T12:21:10.006Z,2200.00
2019-03-26T12:22:09.941Z,2176.00
2019-03-26T12:23:09.896Z,1544.00
2019-03-26T12:24:09.772Z,1452.00
2019-03-26T12:25:09.718Z,1316.00
2019-03-26T12:26:09.647Z,1316.00
2019-03-26T12:27:09.529Z,1996.00
2019-03-26T12:28:09.544Z,1348.00
2019-03-26T12:29:09.373Z,1464.00
2019-03-26T12:30:09.302Z,1732.00
2019-03-26T12:31:09.217Z,1416.00
2019-03-26T12:32:09.135Z,3148.00
2019-03-26T12:33:09.047Z,1620.00
2019-03-26T12:34:09.006Z,2704.00
2019-03-26T12:35:08.965Z,1768.00
2019-03-26T12:36:08.908Z,1800.00
2019-03-26T12:37:08.750Z,3268.00
2019-03-26T12:38:08.655Z,1804.00
2019-03-26T12:39:08.637Z,1368.00
2019-03-26T12:40:08.494Z,1420.00
2019-03-26T12:41:08.626Z,2272.00
2019-03-26T12:42:08.397Z,1212.00
2019-03-26T12:43:08.263Z,1112.00